Time;durP1;ratioP1;P1;durP2;ratioP2;P2;SDS_P1;SDS_P2;PMS_P1;PMS_P2;Temp;Humidity;BMP_temperature;BMP_pressure;BME280_temperature;BME280_humidity;BME280_pressure;Samples;Min_cycle;Max_cycle;Signal;HPM_P1;HPM_P2
2022/12/03 00:01:31;;;;;;;;;;;;;;;6.54;100.00;99764.47;6336083;22;19914;-88
2022/12/03 00:03:56;;;;;;;;;;;;;;;6.57;100.00;99764.38;6338339;22;19917;-85
2022/12/03 00:06:44;;;;;;;;;;;;;;;6.54;100.00;99764.47;6339622;22;19913;-90
2022/12/03 00:09:28;;;;;;;;;;;;;;;;;;;;;
2022/12/03 00:11:54;;;;;;;;;;;;;;;6.57;100.00;99755.63;6340727;22;19989;-95
2022/12/03 00:14:26;;;;;;;;;;;;;;;6.56;100.00;99760.03;6339999;22;19934;-85
2022/12/03 00:16:52;;;;;;;;;;;;;;;6.57;100.00;99756.50;6340003;22;19950;-84
2022/12/03 00:19:17;;;;;;;;;;;;;;;6.57;100.00;99756.50;6338089;22;19933;-84
2022/12/03 00:21:42;;;;;;;;;;;;;;;6.57;100.00;99763.53;6340561;22;19921;-90
2022/12/03 00:24:08;;;;;;;;;;;;;;;6.57;100.00;99759.13;6340036;22;20319;-92
2022/12/03 00:26:33;;;;;;;;;;;;;;;6.59;100.00;99754.69;6338573;22;19910;-87
2022/12/03 00:28:58;;;;;;;;;;;;;;;6.59;100.00;99757.34;6339672;22;20294;-87
2022/12/03 00:31:31;;;;;;;;;;;;;;;6.58;100.00;99760.00;6339416;22;20322;-91
2022/12/03 00:33:59;;;;;;;;;;;;;;;6.58;100.00;99758.22;6340126;22;19993;-91
2022/12/03 00:36:25;;;;;;;;;;;;;;;6.59;100.00;99770.50;6339919;22;19910;-91
2022/12/03 00:38:50;;;;;;;;;;;;;;;6.58;100.00;99768.75;6339134;22;19989;-86
2022/12/03 00:41:15;;;;;;;;;;;;;;;6.58;100.00;99757.38;6339023;22;19911;-91
2022/12/03 00:43:50;;;;;;;;;;;;;;;6.58;100.00;99760.84;6338993;22;19910;-84
2022/12/03 00:46:18;;;;;;;;;;;;;;;6.58;100.00;99755.59;6337931;22;20017;-91
2022/12/03 00:48:43;;;;;;;;;;;;;;;6.57;100.00;99756.50;6306871;22;19918;-85
2022/12/03 00:51:08;;;;;;;;;;;;;;;6.61;100.00;99752.03;6278863;22;19915;-83
2022/12/03 00:53:37;;;;;;;;;;;;;;;6.61;100.00;99752.88;6305929;22;19943;-86
2022/12/03 00:56:02;;;;;;;;;;;;;;;6.64;100.00;99758.06;6306312;22;19967;-90
2022/12/03 00:58:28;;;;;;;;;;;;;;;6.62;100.00;99754.63;6305110;22;19914;-85
2022/12/03 01:00:53;;;;;;;;;;;;;;;6.61;100.00;99755.50;6303568;22;20339;-83
2022/12/03 01:03:18;;;;;;;;;;;;;;;6.61;100.00;99762.56;6305316;22;19926;-86
2022/12/03 01:06:06;;;;;;;;;;;;;;;6.62;100.00;99759.88;6305496;22;19911;-92
2022/12/03 01:08:32;;;;;;;;;;;;;;;6.61;100.00;99758.16;6246524;22;19918;-86
2022/12/03 01:11:00;;;;;;;;;;;;;;;6.63;100.00;99756.31;6304964;22;19911;-87
2022/12/03 01:13:25;;;;;;;;;;;;;;;6.63;100.00;99758.97;6305073;22;19999;-93
2022/12/03 01:15:53;;;;;;;;;;;;;;;6.62;100.00;99759.88;6303531;22;20326;-89
2022/12/03 01:18:18;;;;;;;;;;;;;;;6.64;100.00;99758.06;6305379;22;19915;-85
2022/12/03 01:20:46;;;;;;;;;;;;;;;6.67;100.00;99763.25;6336203;22;19917;-85
2022/12/03 01:23:11;;;;;;;;;;;;;;;6.64;100.00;99758.06;6339282;22;19910;-84
2022/12/03 01:25:36;;;;;;;;;;;;;;;6.65;100.00;99757.16;6339227;22;20326;-84
2022/12/03 01:28:02;;;;;;;;;;;;;;;6.80;100.00;99763.78;6337048;22;19942;-83
2022/12/03 01:30:27;;;;;;;;;;;;;;;6.72;100.00;99755.22;6335908;22;20224;-83
2022/12/03 01:33:01;;;;;;;;;;;;;;;6.70;100.00;99768.44;6338876;22;19910;-87
2022/12/03 01:35:27;;;;;;;;;;;;;;;6.66;100.00;99761.50;6338398;22;19911;-85
2022/12/03 01:37:52;;;;;;;;;;;;;;;6.69;100.00;99761.44;6339256;22;20340;-85
2022/12/03 01:40:25;;;;;;;;;;;;;;;6.68;100.00;99761.47;6339875;22;19921;-87
2022/12/03 01:42:50;;;;;;;;;;;;;;;6.67;100.00;99767.63;6363592;22;19911;-88
2022/12/03 01:45:20;;;;;;;;;;;;;;;6.67;100.00;99763.25;6336628;22;19911;-86
2022/12/03 01:47:46;;;;;;;;;;;;;;;6.68;100.00;99758.84;6363002;22;19910;-84
2022/12/03 01:50:17;;;;;;;;;;;;;;;6.67;100.00;99768.50;6336964;22;19917;-86
2022/12/03 01:52:43;;;;;;;;;;;;;;;6.66;100.00;99772.03;6338250;22;19967;-88
2022/12/03 01:55:19;;;;;;;;;;;;;;;6.67;100.00;99765.88;6364046;22;19914;-80
2022/12/03 01:57:56;;;;;;;;;;;;;;;6.64;100.00;99763.34;6338594;22;20322;-90
2022/12/03 02:00:22;;;;;;;;;;;;;;;6.67;100.00;99767.63;6337114;22;19910;-85
2022/12/03 02:02:50;;;;;;;;;;;;;;;6.68;100.00;99759.69;6338343;22;19913;-85
2022/12/03 02:05:17;;;;;;;;;;;;;;;6.66;100.00;99763.28;6339514;22;19917;-88
2022/12/03 02:07:44;;;;;;;;;;;;;;;6.69;100.00;99765.84;6339276;22;19975;-86
2022/12/03 02:10:11;;;;;;;;;;;;;;;6.69;100.00;99765.84;6338495;22;19918;-84
2022/12/03 02:12:39;;;;;;;;;;;;;;;6.65;100.00;99762.44;6338406;22;19907;-84
2022/12/03 02:15:05;;;;;;;;;;;;;;;6.67;100.00;99765.88;6336800;22;19980;-82
2022/12/03 02:17:32;;;;;;;;;;;;;;;6.69;100.00;99765.84;6339128;22;20327;-88
2022/12/03 02:19:58;;;;;;;;;;;;;;;6.71;100.00;99758.75;6339234;22;19918;-88
2022/12/03 02:22:29;;;;;;;;;;;;;;;6.71;100.00;99759.59;6339083;22;19911;-83
2022/12/03 02:24:58;;;;;;;;;;;;;;;6.69;100.00;99761.44;6338435;22;20242;-87
2022/12/03 02:27:23;;;;;;;;;;;;;;;6.72;100.00;99763.97;6338653;22;19910;-82
2022/12/03 02:29:49;;;;;;;;;;;;;;;6.75;100.00;99767.44;6336497;22;19991;-85
2022/12/03 02:32:27;;;;;;;;;;;;;;;6.73;100.00;99768.34;6338657;22;19911;-89
2022/12/03 02:34:52;;;;;;;;;;;;;;;6.72;100.00;99765.75;6363302;22;19946;-84
2022/12/03 02:37:22;;;;;;;;;;;;;;;6.77;100.00;99763.00;6338382;22;20235;-95
2022/12/03 02:39:49;;;;;;;;;;;;;;;6.76;100.00;99761.25;6338142;22;19985;-84
2022/12/03 02:45:01;;;;;;;;;;;;;;;6.76;100.00;99758.63;6338721;22;19959;-85
2022/12/03 02:47:29;;;;;;;;;;;;;;;6.76;100.00;99756.00;6339997;22;19917;-83
2022/12/03 02:49:54;;;;;;;;;;;;;;;6.79;100.00;99769.09;6339851;22;19915;-87
2022/12/03 02:52:20;;;;;;;;;;;;;;;6.78;100.00;99762.06;6338154;22;19922;-84
2022/12/03 02:54:46;;;;;;;;;;;;;;;6.79;100.00;99763.81;6340203;22;19982;-86
2022/12/03 02:57:11;;;;;;;;;;;;;;;6.82;100.00;99758.47;6339682;22;19955;-85
2022/12/03 02:59:37;;;;;;;;;;;;;;;6.82;100.00;99763.72;6336898;22;19918;-84
2022/12/03 03:02:02;;;;;;;;;;;;;;;6.81;100.00;99759.34;6340013;22;19949;-84
2022/12/03 03:04:27;;;;;;;;;;;;;;;6.83;100.00;99752.28;6338681;22;19959;-82
2022/12/03 03:06:53;;;;;;;;;;;;;;;6.83;100.00;99757.53;6337855;22;19910;-85
2022/12/03 03:09:19;;;;;;;;;;;;;;;6.83;100.00;99757.53;6340015;22;19914;-87
2022/12/03 03:11:44;;;;;;;;;;;;;;;6.84;100.00;99761.91;6340283;22;19911;-86
2022/12/03 03:14:10;;;;;;;;;;;;;;;6.85;100.00;99761.00;6338171;22;19917;-89
2022/12/03 05:28:54;;;;;;;;;;;;;;;7.08;100.00;99737.50;6154713;22;19949;-86
2022/12/03 05:31:19;;;;;;;;;;;;;;;7.07;100.00;99740.19;6338569;22;19923;-86
2022/12/03 05:33:44;;;;;;;;;;;;;;;7.06;100.00;99741.94;6337916;22;19914;-88
2022/12/03 05:36:10;;;;;;;;;;;;;;;7.06;100.00;99733.19;6339065;22;20350;-86
2022/12/03 05:38:35;;;;;;;;;;;;;;;7.09;100.00;99725.19;6338998;22;19910;-86
2022/12/03 05:41:00;;;;;;;;;;;;;;;7.09;100.00;99733.94;6337458;22;20310;-85
2022/12/03 05:43:25;;;;;;;;;;;;;;;7.11;100.00;99735.69;6337216;22;19911;-86
2022/12/03 05:45:51;;;;;;;;;;;;;;;7.09;100.00;99733.94;6339024;22;19921;-86
2022/12/03 05:48:16;;;;;;;;;;;;;;;7.10;100.00;99726.94;6337272;22;19914;-87
2022/12/03 05:50:45;;;;;;;;;;;;;;;7.14;100.00;99727.69;6339112;22;19915;-84
2022/12/03 05:53:14;;;;;;;;;;;;;;;7.08;100.00;99721.72;6338935;22;19911;-87
2022/12/03 05:55:39;;;;;;;;;;;;;;;7.12;100.00;99722.47;6363639;22;19910;-88
2022/12/03 05:58:05;;;;;;;;;;;;;;;7.14;100.00;99725.06;6337088;22;20469;-87
2022/12/03 06:00:32;;;;;;;;;;;;;;;7.15;100.00;99726.78;6339031;22;19910;-86
2022/12/03 06:02:57;;;;;;;;;;;;;;;7.12;100.00;99727.75;6364129;22;19961;-85
2022/12/03 06:05:23;;;;;;;;;;;;;;;7.16;100.00;99717.97;6338857;22;20306;-87
2022/12/03 06:07:49;;;;;;;;;;;;;;;7.15;100.00;99721.50;6338943;22;19933;-85
2022/12/03 06:10:15;;;;;;;;;;;;;;;7.18;100.00;99721.41;6363533;22;19910;-88
2022/12/03 06:12:41;;;;;;;;;;;;;;;7.16;100.00;99731.16;6337408;22;19988;-87
2022/12/03 06:15:07;;;;;;;;;;;;;;;7.16;100.00;99726.72;6338751;22;20326;-87
2022/12/03 06:17:33;;;;;;;;;;;;;;;7.17;100.00;99724.97;6365585;22;19924;-84
2022/12/03 06:19:58;;;;;;;;;;;;;;;7.17;100.00;99720.56;6341263;22;19981;-86
2022/12/03 06:22:23;;;;;;;;;;;;;;;7.17;100.00;99719.72;6340744;22;20035;-86
2022/12/03 06:24:49;;;;;;;;;;;;;;;7.15;100.00;99722.38;6339084;22;19952;-86
2022/12/03 06:27:14;;;;;;;;;;;;;;;7.17;100.00;99719.72;6340473;22;19914;-88
2022/12/03 06:29:40;;;;;;;;;;;;;;;7.18;100.00;99721.41;6338809;22;20323;-88
2022/12/03 06:32:05;;;;;;;;;;;;;;;7.18;100.00;99711.75;6338887;22;19938;-86
2022/12/03 06:34:30;;;;;;;;;;;;;;;7.19;100.00;99712.59;6340543;22;19910;-86
2022/12/03 06:36:56;;;;;;;;;;;;;;;7.18;100.00;99710.88;6340527;22;19940;-86
2022/12/03 06:39:21;;;;;;;;;;;;;;;7.18;100.00;99710.88;6338868;22;19997;-87
2022/12/03 06:41:46;;;;;;;;;;;;;;;7.18;100.00;99711.75;6340348;22;19911;-91
2022/12/03 06:44:12;;;;;;;;;;;;;;;7.17;100.00;99714.44;6339110;22;19915;-89
2022/12/03 06:46:37;;;;;;;;;;;;;;;7.19;100.00;99717.88;6338811;22;20377;-87
2022/12/03 06:49:02;;;;;;;;;;;;;;;7.19;100.00;99718.72;6340341;22;19914;-88
2022/12/03 06:51:28;;;;;;;;;;;;;;;7.19;100.00;99712.59;6340414;22;20211;-88
2022/12/03 06:53:53;;;;;;;;;;;;;;;7.20;100.00;99714.34;6338780;22;19911;-89
2022/12/03 06:56:18;;;;;;;;;;;;;;;7.21;100.00;99726.59;6340168;22;19921;-89
2022/12/03 06:58:44;;;;;;;;;;;;;;;7.20;100.00;99728.38;6338591;22;19988;-89
2022/12/03 07:01:09;;;;;;;;;;;;;;;7.20;100.00;99720.47;6338667;22;19911;-89
2022/12/03 07:03:34;;;;;;;;;;;;;;;7.21;100.00;99726.59;6340376;22;19911;-88
2022/12/03 07:06:00;;;;;;;;;;;;;;;7.21;100.00;99727.47;6340333;22;19921;-88
2022/12/03 07:08:25;;;;;;;;;;;;;;;7.23;100.00;99733.56;6338496;22;19911;-88
2022/12/03 07:10:50;;;;;;;;;;;;;;;7.23;100.00;99736.19;6340059;22;19918;-88
2022/12/03 07:13:15;;;;;;;;;;;;;;;7.24;100.00;99731.78;6338413;22;20326;-87
2022/12/03 07:15:41;;;;;;;;;;;;;;;7.25;100.00;99736.16;6338627;22;20003;-83
2022/12/03 07:18:06;;;;;;;;;;;;;;;7.22;100.00;99737.09;6340132;22;19989;-84
2022/12/03 07:20:31;;;;;;;;;;;;;;;7.24;100.00;99737.94;6340249;22;19914;-85
2022/12/03 07:22:57;;;;;;;;;;;;;;;7.25;100.00;99746.69;6338659;22;19906;-86
2022/12/03 07:25:22;;;;;;;;;;;;;;;7.27;100.00;99745.75;6338857;22;20242;-85
2022/12/03 07:27:47;;;;;;;;;;;;;;;7.26;100.00;99748.44;6338636;22;19913;-83
2022/12/03 08:56:29;;;;;;;;;;;;;;;7.38;100.00;99726.09;6334280;22;20246;-85
2022/12/03 08:58:59;;;;;;;;;;;;;;;7.38;100.00;99719.03;6339514;22;19918;-84
2022/12/03 09:01:44;;;;;;;;;;;;;;;7.38;100.00;99726.09;6339314;22;20387;-86
2022/12/03 09:04:18;;;;;;;;;;;;;;;7.38;100.00;99712.91;6339243;22;20233;-85
2022/12/03 09:06:44;;;;;;;;;;;;;;;7.37;100.00;99717.34;6339701;22;19918;-86
2022/12/03 09:09:12;;;;;;;;;;;;;;;7.36;100.00;99718.22;6337571;22;19915;-85
2022/12/03 09:12:40;;;;;;;;;;;;;;;;;;;;;
2022/12/03 09:14:58;;;;;;;;;;;;;;;7.36;100.00;99728.78;6333679;22;20254;-87
2022/12/03 09:17:26;;;;;;;;;;;;;;;7.36;100.00;99734.03;6337532;22;19917;-88
2022/12/03 09:20:01;;;;;;;;;;;;;;;7.37;100.00;99725.25;6337567;22;19976;-87
2022/12/03 09:22:48;;;;;;;;;;;;;;;7.36;100.00;99720.88;6363191;22;20378;-87
2022/12/03 09:25:43;;;;;;;;;;;;;;;7.38;100.00;99719.03;6338498;22;19910;-86
2022/12/03 09:28:05;;;;;;;;;;;;;;;7.37;100.00;99722.59;6337953;22;19933;-86
2022/12/03 09:30:30;;;;;;;;;;;;;;;7.37;100.00;99712.06;6338194;22;19964;-88
2022/12/03 09:32:56;;;;;;;;;;;;;;;7.38;100.00;99712.91;6362355;22;19914;-86
2022/12/03 09:35:27;;;;;;;;;;;;;;;7.38;100.00;99708.50;6338812;22;19906;-86
2022/12/03 09:37:52;;;;;;;;;;;;;;;7.39;100.00;99717.28;6337581;22;19915;-86
2022/12/03 09:40:25;;;;;;;;;;;;;;;7.39;100.00;99720.78;6338689;22;19955;-86
2022/12/03 09:42:51;;;;;;;;;;;;;;;7.40;100.00;99719.00;6338179;22;19989;-86
2022/12/03 09:45:16;;;;;;;;;;;;;;;7.39;100.00;99709.38;6337697;22;20319;-86
2022/12/03 09:47:51;;;;;;;;;;;;;;;7.40;100.00;99717.25;6336485;22;20342;-89
2022/12/03 09:50:28;;;;;;;;;;;;;;;7.40;100.00;99704.06;6311569;22;19918;-87
2022/12/03 09:53:10;;;;;;;;;;;;;;;7.39;100.00;99702.31;6340611;22;19999;-94
2022/12/03 09:55:35;;;;;;;;;;;;;;;7.38;100.00;99703.22;6340825;22;19910;-89
2022/12/03 09:58:01;;;;;;;;;;;;;;;7.40;100.00;99696.16;6340432;22;20322;-88
2022/12/03 10:00:31;;;;;;;;;;;;;;;7.40;100.00;99696.16;6313664;22;19986;-87
2022/12/03 10:03:00;;;;;;;;;;;;;;;7.40;100.00;99701.41;6339028;22;19911;-87
2022/12/03 10:05:25;;;;;;;;;;;;;;;7.39;100.00;99697.03;6313274;22;19933;-87
2022/12/03 10:07:54;;;;;;;;;;;;;;;7.40;100.00;99698.78;6339340;22;20081;-87
2022/12/03 10:10:21;;;;;;;;;;;;;;;7.40;100.00;99687.34;6313523;22;19933;-87
2022/12/03 10:12:47;;;;;;;;;;;;;;;7.41;100.00;99689.09;6340713;22;19993;-85
2022/12/03 10:15:13;;;;;;;;;;;;;;;7.42;100.00;99682.91;6340810;22;19941;-87
2022/12/03 10:17:38;;;;;;;;;;;;;;;7.41;100.00;99679.41;6340688;22;19915;-88
2022/12/03 10:20:07;;;;;;;;;;;;;;;7.42;100.00;99675.00;6341086;22;19933;-86
2022/12/03 10:22:36;;;;;;;;;;;;;;;7.41;100.00;99676.75;6312512;22;19906;-86
2022/12/03 10:25:07;;;;;;;;;;;;;;;7.42;100.00;99664.47;6340789;22;20226;-89
2022/12/03 10:27:37;;;;;;;;;;;;;;;7.42;100.00;99673.22;6313465;22;19993;-87
2022/12/03 10:30:30;;;;;;;;;;;;;;;7.44;100.00;99671.41;6312868;22;19989;-88
2022/12/03 10:32:56;;;;;;;;;;;;;;;7.42;100.00;99672.38;6199684;22;19908;-85
2022/12/03 10:35:43;;;;;;;;;;;;;;;7.44;100.00;99671.41;6340861;22;19921;-86
2022/12/03 10:38:21;;;;;;;;;;;;;;;7.44;100.00;99676.66;6338393;22;19961;-87
2022/12/03 10:40:46;;;;;;;;;;;;;;;7.44;100.00;99668.75;6340156;22;19997;-86
2022/12/03 10:43:14;;;;;;;;;;;;;;;7.40;100.00;99667.16;6340107;22;19941;-87
2022/12/03 10:45:42;;;;;;;;;;;;;;;7.42;100.00;99665.31;6338428;22;19963;-86
2022/12/03 10:48:11;;;;;;;;;;;;;;;7.45;100.00;99664.34;6341134;22;19922;-88
2022/12/03 10:50:44;;;;;;;;;;;;;;;7.59;100.00;99663.91;6365777;22;20001;-89
2022/12/03 10:53:27;;;;;;;;;;;;;;;7.54;100.00;99660.56;6312992;22;20102;-86
2022/12/03 10:55:58;;;;;;;;;;;;;;;7.46;100.00;99666.94;6340416;22;19964;-86
2022/12/03 10:58:24;;;;;;;;;;;;;;;7.45;100.00;99656.44;6340378;22;19910;-88
2022/12/03 11:00:51;;;;;;;;;;;;;;;7.46;100.00;99660.81;6340460;22;19918;-87
2022/12/03 11:03:20;;;;;;;;;;;;;;;7.45;100.00;99657.31;6340566;22;19913;-87
2022/12/03 11:05:46;;;;;;;;;;;;;;;7.46;100.00;99656.38;6340693;22;19955;-88
2022/12/03 11:08:19;;;;;;;;;;;;;;;7.43;100.00;99648.56;6338683;22;19938;-84
2022/12/03 11:10:44;;;;;;;;;;;;;;;7.45;100.00;99645.88;6340175;22;19918;-86
2022/12/03 11:13:27;;;;;;;;;;;;;;;7.44;100.00;99645.03;6364961;22;20238;-88
2022/12/03 11:16:23;;;;;;;;;;;;;;;7.45;100.00;99630.94;6340381;22;19907;-88
2022/12/03 11:18:48;;;;;;;;;;;;;;;7.43;100.00;99627.47;6340099;22;19911;-86
2022/12/03 11:21:14;;;;;;;;;;;;;;;7.43;100.00;99621.34;6339997;22;19917;-86
2022/12/03 11:23:50;;;;;;;;;;;;;;;7.45;100.00;99624.78;6339420;22;20260;-87
2022/12/03 11:26:24;;;;;;;;;;;;;;;7.43;100.00;99619.56;6338732;22;20237;-87
2022/12/03 11:28:58;;;;;;;;;;;;;;;7.44;100.00;99618.66;6340118;22;19981;-85
2022/12/03 11:31:30;;;;;;;;;;;;;;;7.45;100.00;99619.53;6365302;22;20063;-85
2022/12/03 11:34:14;;;;;;;;;;;;;;;7.45;100.00;99615.13;6339989;22;20314;-86
2022/12/03 11:36:59;;;;;;;;;;;;;;;7.45;100.00;99620.41;6339800;22;19941;-88
2022/12/03 11:39:43;;;;;;;;;;;;;;;7.46;100.00;99606.28;6337982;22;19911;-87
2022/12/03 11:42:29;;;;;;;;;;;;;;;7.45;100.00;99607.22;6340276;22;19911;-86
2022/12/03 11:45:15;;;;;;;;;;;;;;;7.44;100.00;99602.84;6339912;22;20318;-88
2022/12/03 11:47:49;;;;;;;;;;;;;;;7.45;100.00;99601.06;6338856;22;19921;-89
2022/12/03 11:50:49;;;;;;;;;;;;;;;7.45;100.00;99593.16;6339794;22;20448;-90
2022/12/03 11:53:21;;;;;;;;;;;;;;;7.46;100.00;99598.38;6338050;22;19985;-89
2022/12/03 11:55:57;;;;;;;;;;;;;;;7.46;100.00;99600.16;6339795;22;19910;-89
2022/12/03 11:58:32;;;;;;;;;;;;;;;7.46;100.00;99593.09;6339618;22;19993;-87
2022/12/03 12:00:59;;;;;;;;;;;;;;;7.47;100.00;99599.25;6364966;22;20311;-87
2022/12/03 12:03:34;;;;;;;;;;;;;;;7.46;100.00;99597.53;6339947;22;19953;-85
2022/12/03 12:06:31;;;;;;;;;;;;;;;7.48;100.00;99589.56;6339838;22;19930;-88
2022/12/03 12:08:57;;;;;;;;;;;;;;;7.50;100.00;99587.72;6338479;22;20311;-86
2022/12/03 12:11:36;;;;;;;;;;;;;;;7.44;100.00;99589.66;6364167;22;19918;-84
2022/12/03 12:14:08;;;;;;;;;;;;;;;7.45;100.00;99580.88;6339283;22;19915;-85
2022/12/03 12:17:04;;;;;;;;;;;;;;;;;;;;;
2022/12/03 12:19:30;;;;;;;;;;;;;;;7.46;100.00;99582.56;6339679;22;19986;-86
2022/12/03 12:22:11;;;;;;;;;;;;;;;7.48;100.00;99577.25;6337937;22;19969;-86
2022/12/03 12:24:45;;;;;;;;;;;;;;;7.46;100.00;99579.94;6363035;22;20257;-85
2022/12/03 12:27:17;;;;;;;;;;;;;;;7.49;100.00;99580.75;6339742;22;19911;-87
2022/12/03 12:29:47;;;;;;;;;;;;;;;7.47;100.00;99562.34;6339623;22;19915;-86
2022/12/03 12:32:28;;;;;;;;;;;;;;;;;;;;;
2022/12/03 12:35:40;;;;;;;;;;;;;;;7.50;100.00;99567.53;6339497;22;20001;-85
2022/12/03 12:38:16;;;;;;;;;;;;;;;7.50;100.00;99558.72;6242248;23;19919;-86
2022/12/03 12:40:45;;;;;;;;;;;;;;;7.50;100.00;99559.63;6243702;23;20405;-88
2022/12/03 12:43:46;;;;;;;;;;;;;;;7.52;100.00;99551.66;6313700;22;19918;-90
2022/12/03 12:46:21;;;;;;;;;;;;;;;7.50;100.00;99553.47;6243671;23;19916;-87
2022/12/03 12:48:49;;;;;;;;;;;;;;;7.51;100.00;99549.94;6243628;23;19912;-87
2022/12/03 12:51:18;;;;;;;;;;;;;;;7.51;100.00;99544.66;6334806;22;20312;-86
2022/12/03 12:53:56;;;;;;;;;;;;;;;;;;;;;
2022/12/03 12:56:40;;;;;;;;;;;;;;;7.49;100.00;99543.84;6339276;22;19969;-87
2022/12/03 12:59:09;;;;;;;;;;;;;;;7.50;100.00;99540.28;6339331;22;20245;-87
2022/12/03 13:02:03;;;;;;;;;;;;;;;7.52;100.00;99546.38;6337995;22;19910;-87
2022/12/03 13:04:38;;;;;;;;;;;;;;;7.49;100.00;99543.84;6337543;22;19910;-87
2022/12/03 13:07:07;;;;;;;;;;;;;;;7.52;100.00;99543.75;6339309;22;19911;-86
2022/12/03 13:09:38;;;;;;;;;;;;;;;7.52;100.00;99527.94;6338005;22;19925;-86
2022/12/03 13:12:08;;;;;;;;;;;;;;;7.52;100.00;99534.06;6339129;22;19910;-86
2022/12/03 13:14:54;;;;;;;;;;;;;;;7.52;100.00;99536.69;6339272;22;19910;-91
2022/12/03 13:17:40;;;;;;;;;;;;;;;7.51;100.00;99534.09;6339045;22;19911;-86
2022/12/03 13:20:16;;;;;;;;;;;;;;;7.52;100.00;99527.94;6338474;22;19972;-90
2022/12/03 13:22:56;;;;;;;;;;;;;;;7.53;100.00;99522.59;6337660;22;19910;-87
2022/12/03 13:25:51;;;;;;;;;;;;;;;7.54;100.00;99518.19;6338509;22;19910;-86
2022/12/03 13:28:29;;;;;;;;;;;;;;;7.53;100.00;99521.72;6328643;22;19921;-86
2022/12/03 13:30:54;;;;;;;;;;;;;;;7.52;100.00;99533.19;6337467;22;19941;-85
2022/12/03 13:33:25;;;;;;;;;;;;;;;7.52;100.00;99520.03;6339427;22;20282;-87
2022/12/03 13:35:54;;;;;;;;;;;;;;;7.53;100.00;99516.44;6339041;22;19910;-86
2022/12/03 13:38:23;;;;;;;;;;;;;;;7.53;100.00;99516.44;6361913;22;20319;-86
2022/12/03 13:40:58;;;;;;;;;;;;;;;7.54;100.00;99518.19;6339039;22;19921;-95
2022/12/03 13:43:27;;;;;;;;;;;;;;;7.54;100.00;99508.50;6363215;22;20287;-85
2022/12/03 13:45:55;;;;;;;;;;;;;;;7.54;100.00;99512.91;6337460;22;19910;-86
2022/12/03 13:48:25;;;;;;;;;;;;;;;7.55;100.00;99509.38;6339595;22;19907;-86
2022/12/03 13:51:13;;;;;;;;;;;;;;;7.54;100.00;99499.72;6363939;22;19983;-91
2022/12/03 13:53:58;;;;;;;;;;;;;;;;;;;;;
2022/12/03 13:56:32;;;;;;;;;;;;;;;7.53;100.00;99500.63;6339406;22;19989;-87
2022/12/03 13:59:22;;;;;;;;;;;;;;;7.53;100.00;99501.50;6337245;22;19910;-87
2022/12/03 14:02:15;;;;;;;;;;;;;;;;;;;;;
2022/12/03 14:04:41;;;;;;;;;;;;;;;7.52;100.00;99499.78;6336160;22;19994;-85
2022/12/03 14:07:16;;;;;;;;;;;;;;;7.54;100.00;99507.63;6336338;22;20310;-87
2022/12/03 14:09:41;;;;;;;;;;;;;;;7.55;100.00;99509.38;6334472;22;19918;-83
2022/12/03 14:15:30;;;;;;;;;;;;;;;7.53;100.00;99509.41;6275449;22;19911;-87
2022/12/03 14:17:56;;;;;;;;;;;;;;;7.56;100.00;99511.06;6273116;22;19915;-88
2022/12/03 14:20:44;;;;;;;;;;;;;;;7.56;100.00;99508.44;6274023;22;19918;-91
2022/12/03 14:23:32;;;;;;;;;;;;;;;7.55;100.00;99514.66;6259991;22;20419;-87
2022/12/03 14:26:07;;;;;;;;;;;;;;;7.55;100.00;99502.31;6287170;22;19995;-86
2022/12/03 14:28:32;;;;;;;;;;;;;;;7.56;100.00;99503.16;6337049;22;19910;-85
2022/12/03 14:30:57;;;;;;;;;;;;;;;7.56;100.00;99505.78;6338843;22;19985;-85
2022/12/03 14:33:22;;;;;;;;;;;;;;;7.55;100.00;99512.84;6337483;22;19938;-86
2022/12/03 14:35:58;;;;;;;;;;;;;;;;;;;;;
2022/12/03 14:38:26;;;;;;;;;;;;;;;7.57;100.00;99510.16;6338906;22;20312;-85
2022/12/03 14:40:51;;;;;;;;;;;;;;;7.56;100.00;99511.94;6339198;22;20141;-87
2022/12/03 14:43:17;;;;;;;;;;;;;;;7.56;100.00;99511.94;6341289;22;20305;-87
2022/12/03 14:45:42;;;;;;;;;;;;;;;7.55;100.00;99509.38;6338793;22;19910;-85
2022/12/03 14:48:07;;;;;;;;;;;;;;;7.55;100.00;99509.38;6339100;22;19911;-85
2022/12/03 14:50:33;;;;;;;;;;;;;;;7.57;100.00;99518.06;6340411;22;19910;-84
2022/12/03 14:53:07;;;;;;;;;;;;;;;7.56;100.00;99501.41;6338653;22;19921;-86
2022/12/03 14:55:32;;;;;;;;;;;;;;;7.56;100.00;99508.44;6338826;22;19956;-85
2022/12/03 14:57:58;;;;;;;;;;;;;;;7.58;100.00;99507.47;6340582;22;20249;-82
2022/12/03 15:00:23;;;;;;;;;;;;;;;7.59;100.00;99513.59;6340384;22;19911;-85
2022/12/03 15:02:48;;;;;;;;;;;;;;;7.59;100.00;99516.25;6338536;22;19910;-86
2022/12/03 15:05:17;;;;;;;;;;;;;;;7.58;100.00;99511.91;6340640;22;19940;-87
2022/12/03 15:07:45;;;;;;;;;;;;;;;7.59;100.00;99513.59;6337018;22;19906;-86
2022/12/03 15:10:15;;;;;;;;;;;;;;;7.58;100.00;99512.75;6340292;22;19956;-86
2022/12/03 15:12:42;;;;;;;;;;;;;;;7.58;100.00;99515.38;6365267;22;19911;-86
2022/12/03 15:15:08;;;;;;;;;;;;;;;7.59;100.00;99518.88;6340118;22;19907;-85
2022/12/03 15:17:33;;;;;;;;;;;;;;;7.56;100.00;99511.94;6339864;22;20237;-86
2022/12/03 15:19:59;;;;;;;;;;;;;;;7.59;100.00;99518.88;6338958;22;19997;-85
2022/12/03 15:25:02;;;;;;;;;;;;;;;7.60;100.00;99508.28;6334971;22;20330;-86
2022/12/03 15:27:27;;;;;;;;;;;;;;;7.61;100.00;99506.50;6338936;22;19921;-85
2022/12/03 15:29:57;;;;;;;;;;;;;;;7.58;100.00;99504.84;6340073;22;19915;-87
2022/12/03 15:32:22;;;;;;;;;;;;;;;7.58;100.00;99507.47;6337105;22;19911;-87
2022/12/03 15:34:53;;;;;;;;;;;;;;;7.59;100.00;99510.97;6337366;22;19910;-87
2022/12/03 15:37:28;;;;;;;;;;;;;;;;;;;;;
2022/12/03 15:39:57;;;;;;;;;;;;;;;7.60;100.00;99513.56;6335487;22;19994;-86
2022/12/03 15:42:28;;;;;;;;;;;;;;;7.60;100.00;99507.44;6337054;22;20250;-87
2022/12/03 15:44:53;;;;;;;;;;;;;;;7.59;100.00;99510.97;6337252;22;19997;-86
2022/12/03 15:47:19;;;;;;;;;;;;;;;7.60;100.00;99516.19;6337078;22;20262;-87
2022/12/03 15:50:04;;;;;;;;;;;;;;;7.58;100.00;99515.38;6336754;22;20277;-87
2022/12/03 15:52:30;;;;;;;;;;;;;;;7.59;100.00;99510.97;6336283;22;19911;-87
2022/12/03 15:55:05;;;;;;;;;;;;;;;7.58;100.00;99514.53;6335256;22;19960;-86
2022/12/03 15:57:30;;;;;;;;;;;;;;;7.57;100.00;99505.75;6339000;22;20305;-87
2022/12/03 15:59:58;;;;;;;;;;;;;;;7.61;100.00;99503.84;6338695;22;19911;-86
2022/12/03 16:02:32;;;;;;;;;;;;;;;7.61;100.00;99504.75;6339867;22;20310;-87
2022/12/03 16:05:02;;;;;;;;;;;;;;;7.61;100.00;99506.50;6339610;22;20298;-87
2022/12/03 16:07:36;;;;;;;;;;;;;;;7.59;100.00;99509.19;6338367;22;19911;-86
2022/12/03 16:13:09;;;;;;;;;;;;;;;7.60;100.00;99510.06;6328498;22;19935;-87
2022/12/03 16:16:07;;;;;;;;;;;;;;;;;;;;;
2022/12/03 16:18:41;;;;;;;;;;;;;;;7.60;100.00;99505.63;6339712;22;19993;-86
2022/12/03 16:21:29;;;;;;;;;;;;;;;7.59;100.00;99505.69;6339691;22;19983;-94
2022/12/03 16:24:18;;;;;;;;;;;;;;;7.59;100.00;99501.28;6291667;22;20301;-88
2022/12/03 16:26:55;;;;;;;;;;;;;;;7.58;100.00;99510.13;6339009;22;19942;-89
2022/12/03 16:29:56;;;;;;;;;;;;;;;;;;;;;
2022/12/03 16:32:24;;;;;;;;;;;;;;;7.62;100.00;99516.13;6187568;22;19995;-87
2022/12/03 16:34:52;;;;;;;;;;;;;;;7.60;100.00;99515.34;6312052;22;19993;-86
2022/12/03 16:37:17;;;;;;;;;;;;;;;7.61;100.00;99503.84;6339677;22;19917;-87
2022/12/03 16:39:50;;;;;;;;;;;;;;;7.59;100.00;99505.69;6337878;22;19938;-86
2022/12/03 16:42:16;;;;;;;;;;;;;;;7.59;100.00;99506.53;6339981;22;20311;-88
2022/12/03 16:45:21;;;;;;;;;;;;;;;7.59;100.00;99503.06;6312885;22;19917;-86
2022/12/03 16:47:56;;;;;;;;;;;;;;;7.59;100.00;99497.78;6339024;22;19906;-86
2022/12/03 16:50:24;;;;;;;;;;;;;;;7.62;100.00;99495.03;6339385;22;19942;-87
2022/12/03 16:52:50;;;;;;;;;;;;;;;7.60;100.00;99488.97;6309917;22;20322;-86
2022/12/03 16:55:24;;;;;;;;;;;;;;;7.61;100.00;99485.41;6339546;22;19919;-87
2022/12/03 16:57:49;;;;;;;;;;;;;;;7.60;100.00;99486.34;6311463;22;19911;-85
2022/12/03 17:00:20;;;;;;;;;;;;;;;7.61;100.00;99490.66;6339173;22;20337;-91
2022/12/03 17:02:45;;;;;;;;;;;;;;;7.60;100.00;99489.81;6339231;22;19917;-85
2022/12/03 17:05:11;;;;;;;;;;;;;;;7.61;100.00;99490.66;6339183;22;19911;-86
2022/12/03 17:07:36;;;;;;;;;;;;;;;7.62;100.00;99487.13;6336639;22;19911;-86
2022/12/03 17:10:05;;;;;;;;;;;;;;;7.62;100.00;99479.22;6338478;22;20005;-90